Time;durP1;ratioP1;P1;durP2;ratioP2;P2;SDS_P1;SDS_P2;PMS_P1;PMS_P2;Temp;Humidity;BMP_temperature;BMP_pressure;BME280_temperature;BME280_humidity;BME280_pressure;Samples;Min_cycle;Max_cycle;Signal;HPM_P1;HPM_P2
2023/06/11 00:00:44;;;;;;;5.68;4.72;;;18.40;99.90;;;18.21;100.00;97064.41;5046437;28;20660;-36
2023/06/11 00:03:09;;;;;;;5.10;4.30;;;18.30;99.90;;;18.17;100.00;97067.44;5044104;28;20032;-37
2023/06/11 00:05:35;;;;;;;5.80;4.65;;;18.20;99.90;;;18.08;100.00;97059.13;5048933;28;20060;-36
2023/06/11 00:08:02;;;;;;;4.78;4.30;;;18.20;99.90;;;18.03;100.00;97066.63;5046013;28;20021;-36
2023/06/11 00:10:28;;;;;;;6.97;4.50;;;18.10;99.90;;;17.97;100.00;97066.22;5051566;28;20055;-36
2023/06/11 00:12:53;;;;;;;6.13;4.72;;;18.00;99.90;;;17.89;100.00;97059.63;5048211;28;20458;-36
2023/06/11 00:15:19;;;;;;;5.93;5.13;;;18.00;99.90;;;17.90;100.00;97061.31;5048573;28;20709;-36
2023/06/11 00:17:45;;;;;;;5.75;4.90;;;18.00;99.90;;;17.95;100.00;97054.81;5046320;28;20040;-36
2023/06/11 00:20:11;;;;;;;5.18;4.68;;;18.00;99.90;;;17.90;100.00;97053.31;5043345;28;20041;-36
2023/06/11 00:22:38;;;;;;;5.60;4.40;;;18.00;99.90;;;17.91;100.00;97062.19;5056143;28;20391;-36
2023/06/11 00:25:06;;;;;;;10.95;5.53;;;18.00;99.90;;;17.85;100.00;97058.13;5048196;28;20061;-36
2023/06/11 00:27:36;;;;;;;6.35;5.10;;;18.00;99.90;;;17.82;100.00;97057.47;5043849;28;20033;-36
2023/06/11 00:30:04;;;;;;;7.25;4.90;;;17.90;99.90;;;17.76;100.00;97053.41;5044201;28;20118;-36
2023/06/11 00:32:34;;;;;;;6.75;5.35;;;17.90;99.90;;;17.72;100.00;97055.44;5051261;28;20146;-36
2023/06/11 00:35:01;;;;;;;6.35;5.38;;;17.90;99.90;;;17.73;100.00;97049.16;5047440;28;20115;-36
2023/06/11 00:37:27;;;;;;;7.32;5.35;;;17.80;99.90;;;17.74;100.00;97045.53;5041914;28;20502;-36
2023/06/11 00:39:52;;;;;;;8.45;5.55;;;17.90;99.90;;;17.74;100.00;97045.53;5035438;28;20033;-36
2023/06/11 00:42:19;;;;;;;7.03;5.30;;;17.90;99.90;;;17.74;100.00;97055.34;5040596;28;20033;-37
2023/06/11 00:44:47;;;;;;;5.82;5.22;;;17.80;99.90;;;17.75;100.00;97055.25;5042546;28;20163;-37
2023/06/11 00:47:16;;;;;;;6.10;5.32;;;17.80;99.90;;;17.70;100.00;97046.72;5043957;28;20021;-37
2023/06/11 00:49:44;;;;;;;5.32;4.82;;;17.80;99.90;;;17.76;100.00;97045.41;5046767;28;20486;-37
2023/06/11 00:52:13;;;;;;;5.63;5.00;;;17.90;99.90;;;17.76;100.00;97058.75;5047366;28;20107;-37
2023/06/11 00:54:40;;;;;;;5.47;4.90;;;17.90;99.90;;;17.72;100.00;97051.94;5046752;28;20029;-37
2023/06/11 00:57:06;;;;;;;5.70;5.18;;;17.80;99.90;;;17.67;100.00;97059.41;5049155;28;20040;-37
2023/06/11 00:59:34;;;;;;;6.35;5.35;;;17.80;99.90;;;17.56;100.00;97058.34;5042323;28;20036;-37
2023/06/11 01:02:17;;;;;;;5.40;4.90;;;17.70;99.90;;;17.49;100.00;97067.75;5044335;28;20428;-37
2023/06/11 01:04:45;;;;;;;6.07;5.47;;;17.60;99.90;;;17.42;100.00;97062.97;5044648;28;20039;-39
2023/06/11 01:07:15;;;;;;;5.93;5.15;;;17.50;99.90;;;17.35;100.00;97065.19;5045481;28;20074;-41
2023/06/11 01:09:44;;;;;;;6.38;5.43;;;17.40;99.90;;;17.27;100.00;97064.88;5046002;28;20485;-37
2023/06/11 01:12:15;;;;;;;6.65;5.88;;;17.40;99.90;;;17.26;100.00;97072.00;5056299;28;20028;-37
2023/06/11 01:14:42;;;;;;;6.90;6.00;;;17.30;99.90;;;17.25;100.00;97065.00;5048020;28;20032;-37
2023/06/11 01:17:17;;;;;;;6.43;5.45;;;17.30;99.90;;;17.24;100.00;97065.09;5050651;28;20036;-37
2023/06/11 01:20:12;;;;;;;8.02;5.70;;;17.30;99.90;;;17.19;100.00;97070.72;5048457;28;20021;-37
2023/06/11 01:23:33;;;;;;;6.45;5.68;;;17.30;99.90;;;17.15;100.00;97066.56;5046795;28;20029;-37
2023/06/11 01:26:22;;;;;;;6.93;5.55;;;17.20;99.90;;;17.09;100.00;97064.34;4979295;28;20030;-38
2023/06/11 01:28:54;;;;;;;6.72;5.78;;;17.20;99.90;;;17.03;100.00;97070.94;4976229;28;20030;-37
2023/06/11 01:31:21;;;;;;;6.50;5.57;;;17.10;99.90;;;16.98;100.00;97068.59;5023742;28;20571;-37
2023/06/11 01:33:47;;;;;;;6.20;5.60;;;17.10;99.90;;;16.94;100.00;97072.44;5043943;28;20182;-38
2023/06/11 01:36:14;;;;;;;6.70;6.00;;;17.00;99.90;;;16.87;100.00;97071.13;5041517;28;20505;-37
2023/06/11 01:38:44;;;;;;;6.82;5.65;;;17.00;99.90;;;16.77;100.00;97059.34;5048797;28;20083;-36
2023/06/11 01:41:13;;;;;;;7.75;5.82;;;17.00;99.90;;;16.80;100.00;97069.81;5049866;28;20029;-36
2023/06/11 01:43:40;;;;;;;10.70;6.97;;;16.90;99.90;;;16.76;100.00;97069.16;5046808;28;20040;-36
2023/06/11 01:46:06;;;;;;;7.75;6.57;;;16.90;99.90;;;16.77;100.00;97065.53;5052657;28;20024;-36
2023/06/11 01:48:32;;;;;;;7.75;5.70;;;16.90;99.90;;;16.73;100.00;97065.84;5048744;28;20036;-36
2023/06/11 01:50:58;;;;;;;7.35;5.57;;;16.90;99.90;;;16.71;100.00;97065.09;5050693;28;20394;-36
2023/06/11 01:53:24;;;;;;;6.97;6.22;;;16.80;99.90;;;16.64;100.00;97058.50;5049415;28;20067;-36
2023/06/11 01:55:50;;;;;;;6.90;5.40;;;16.80;99.90;;;16.55;100.00;97050.16;5052133;28;20056;-36
2023/06/11 01:58:16;;;;;;;6.70;5.97;;;16.80;99.90;;;16.60;100.00;97065.81;5048794;28;20482;-36
2023/06/11 02:00:43;;;;;;;7.88;5.75;;;16.70;99.90;;;16.57;100.00;97058.03;5051463;28;20037;-36
2023/06/11 02:03:09;;;;;;;7.95;6.50;;;16.70;99.90;;;16.51;100.00;97053.97;5048147;28;20048;-36
2023/06/11 02:05:35;;;;;;;8.45;5.85;;;16.70;99.90;;;16.57;100.00;97068.69;5033701;28;20433;-36
2023/06/11 02:08:01;;;;;;;6.47;5.53;;;16.70;99.90;;;16.56;100.00;97062.50;5052934;28;20040;-36
2023/06/11 02:10:27;;;;;;;7.65;6.43;;;16.70;99.90;;;16.54;100.00;97067.06;5049305;28;20029;-36
2023/06/11 02:12:52;;;;;;;6.40;5.80;;;16.60;99.90;;;16.51;100.00;97058.44;5049063;28;20036;-36
2023/06/11 02:15:19;;;;;;;6.25;5.65;;;16.70;99.90;;;16.48;100.00;97059.50;5045747;28;20043;-36
2023/06/11 02:17:45;;;;;;;7.18;5.50;;;16.60;99.90;;;16.47;100.00;97052.44;5048371;28;20028;-36
2023/06/11 02:20:12;;;;;;;9.98;6.10;;;16.60;99.90;;;16.45;100.00;97059.69;5046504;28;21558;-36
2023/06/11 02:22:37;;;;;;;7.15;6.10;;;16.60;99.90;;;16.44;100.00;97055.34;5051095;28;20506;-36
2023/06/11 02:25:04;;;;;;;5.90;5.30;;;16.60;99.90;;;16.43;100.00;97056.28;5047456;28;20029;-36
2023/06/11 02:27:30;;;;;;;7.65;5.68;;;16.60;99.90;;;16.32;100.00;97050.81;5046920;28;20553;-36
2023/06/11 02:29:56;;;;;;;7.18;5.93;;;16.50;99.90;;;16.33;100.00;97063.16;5049881;28;20028;-36
2023/06/11 02:32:22;;;;;;;6.25;5.65;;;16.50;99.90;;;16.29;100.00;97064.31;5037332;28;20051;-36
2023/06/11 02:34:48;;;;;;;7.28;6.13;;;16.40;99.90;;;16.23;100.00;97071.75;5053668;28;20397;-36
2023/06/11 02:37:13;;;;;;;6.45;5.85;;;16.30;99.90;;;16.19;100.00;97072.06;5046588;28;20058;-37
2023/06/11 02:39:39;;;;;;;8.43;6.55;;;16.30;99.90;;;16.17;100.00;97074.81;5044572;28;20036;-36
2023/06/11 02:42:05;;;;;;;6.82;5.85;;;16.30;99.90;;;16.16;100.00;97081.06;5046459;28;20044;-36
2023/06/11 02:44:31;;;;;;;6.60;5.80;;;16.30;99.90;;;16.12;100.00;97060.94;5051296;28;20525;-36
2023/06/11 02:46:57;;;;;;;6.78;6.07;;;16.30;99.90;;;16.16;100.00;97073.09;5048977;28;20033;-36
2023/06/11 02:49:23;;;;;;;6.53;5.93;;;16.30;99.90;;;16.16;100.00;97074.91;5049068;28;20037;-36
2023/06/11 02:51:48;;;;;;;7.20;5.55;;;16.30;99.90;;;16.17;100.00;97079.28;5050035;28;20552;-36
2023/06/11 02:54:14;;;;;;;6.53;5.38;;;16.30;99.90;;;16.15;100.00;97079.38;5048484;28;20036;-36
2023/06/11 02:56:40;;;;;;;9.10;5.65;;;16.30;99.90;;;16.12;100.00;97087.56;5049060;28;20031;-36
2023/06/11 02:59:06;;;;;;;8.00;6.45;;;16.20;99.90;;;16.09;100.00;97087.75;5049364;28;20036;-36
2023/06/11 03:01:32;;;;;;;6.68;5.85;;;16.20;99.90;;;16.08;100.00;97085.19;5048846;28;20032;-36
2023/06/11 03:03:57;;;;;;;6.45;5.20;;;16.20;99.90;;;16.10;100.00;97091.28;5051197;28;20042;-36
2023/06/11 03:06:23;;;;;;;6.22;5.63;;;16.20;99.90;;;16.09;100.00;97089.56;5045585;28;20032;-36
2023/06/11 03:08:49;;;;;;;5.85;5.22;;;16.20;99.90;;;16.09;100.00;97094.88;5043422;28;20021;-36
2023/06/11 03:11:15;;;;;;;6.03;5.43;;;16.20;99.90;;;16.07;100.00;97102.94;5042475;28;20032;-36
2023/06/11 03:13:41;;;;;;;6.70;5.88;;;16.20;99.90;;;16.07;100.00;97097.63;5046321;28;20032;-36
2023/06/11 03:16:07;;;;;;;7.30;5.72;;;16.20;99.90;;;16.07;100.00;97100.28;5044216;28;20029;-36
2023/06/11 03:18:32;;;;;;;7.32;6.10;;;16.20;99.90;;;16.06;100.00;97108.38;5046615;28;20068;-36
2023/06/11 03:20:58;;;;;;;6.63;5.95;;;16.20;99.90;;;16.04;100.00;97108.47;5053249;28;20407;-36
2023/06/11 03:23:24;;;;;;;6.20;5.60;;;16.20;99.90;;;16.00;100.00;97113.13;5048131;28;20040;-36
2023/06/11 03:25:49;;;;;;;5.80;5.00;;;16.10;99.90;;;15.97;100.00;97112.47;5044150;28;20501;-36
2023/06/11 03:28:16;;;;;;;6.10;5.50;;;16.10;99.90;;;15.95;100.00;97114.38;5045476;28;20473;-36
2023/06/11 03:30:41;;;;;;;5.65;5.05;;;16.10;99.90;;;15.93;100.00;97105.63;5045454;28;20052;-36
2023/06/11 03:33:07;;;;;;;6.72;5.70;;;16.10;99.90;;;15.91;100.00;97107.53;5044284;28;20389;-36
2023/06/11 03:35:33;;;;;;;8.35;5.57;;;16.10;99.90;;;15.86;100.00;97099.00;5047166;28;20041;-36
2023/06/11 03:37:58;;;;;;;6.10;5.40;;;16.00;99.90;;;15.90;100.00;97111.13;5047220;28;20083;-36
2023/06/11 03:40:24;;;;;;;5.93;5.32;;;16.00;99.90;;;15.91;100.00;97113.69;5045279;28;20039;-36
2023/06/11 03:42:50;;;;;;;6.07;5.45;;;16.00;99.90;;;15.93;100.00;97102.97;5043331;28;20032;-36
2023/06/11 03:45:16;;;;;;;7.68;5.10;;;16.00;99.90;;;15.92;100.00;97104.78;5040345;28;20020;-36
2023/06/11 03:47:41;;;;;;;6.10;5.40;;;16.00;99.90;;;15.91;100.00;97115.50;5040221;28;20129;-36
2023/06/11 03:50:08;;;;;;;5.78;5.28;;;16.00;99.90;;;15.84;100.00;97107.94;5038330;28;20052;-36
2023/06/11 03:52:33;;;;;;;6.07;5.43;;;16.10;99.90;;;15.92;100.00;97122.56;5041396;28;23273;-36
2023/06/11 03:54:59;;;;;;;5.38;4.85;;;16.10;99.90;;;15.92;100.00;97114.59;5041423;28;20049;-36
2023/06/11 03:57:25;;;;;;;6.97;5.65;;;16.00;99.90;;;15.90;100.00;97112.00;5040091;28;20170;-36
2023/06/11 03:59:51;;;;;;;6.65;5.75;;;16.00;99.90;;;15.90;100.00;97116.44;5041285;28;20132;-36
2023/06/11 04:02:16;;;;;;;6.40;5.70;;;16.00;99.90;;;15.91;100.00;97118.19;5038428;28;20078;-36
2023/06/11 04:04:42;;;;;;;7.82;5.90;;;16.10;99.90;;;15.91;100.00;97118.19;5040134;28;20470;-36
2023/06/11 04:07:08;;;;;;;6.68;5.90;;;16.10;99.90;;;15.95;100.00;97120.56;5038277;28;20025;-36
2023/06/11 04:09:33;;;;;;;5.93;5.32;;;16.10;99.90;;;16.00;100.00;97130.88;5040091;28;20033;-36
2023/06/11 04:11:59;;;;;;;5.65;5.07;;;16.10;99.90;;;16.02;100.00;97132.53;5040769;28;20031;-36
2023/06/11 04:14:25;;;;;;;6.15;5.25;;;16.10;99.90;;;16.07;100.00;97132.22;5036162;28;20033;-36
2023/06/11 04:16:50;;;;;;;5.63;5.07;;;16.20;99.90;;;16.14;100.00;97127.34;5040744;28;20040;-36
2023/06/11 04:19:16;;;;;;;6.43;5.18;;;16.20;99.90;;;16.20;100.00;97135.81;5039731;28;20627;-36
2023/06/11 04:21:42;;;;;;;5.78;5.18;;;16.30;99.90;;;16.23;100.00;97124.09;5042655;28;20037;-37
2023/06/11 04:24:08;;;;;;;5.97;4.93;;;16.40;99.90;;;16.33;100.00;97138.53;5038675;28;20032;-36
2023/06/11 04:26:33;;;;;;;5.38;4.82;;;16.50;99.90;;;16.29;100.00;97123.69;5039584;28;20032;-36
2023/06/11 04:28:59;;;;;;;6.60;5.68;;;16.50;99.90;;;16.41;100.00;97130.06;5041031;28;20506;-36
2023/06/11 04:31:26;;;;;;;5.72;5.20;;;16.60;99.90;;;16.51;100.00;97136.50;5038146;28;20064;-36
2023/06/11 04:33:55;;;;;;;5.93;4.88;;;16.60;99.90;;;16.58;100.00;97135.13;5040470;28;20036;-36
2023/06/11 04:36:24;;;;;;;5.78;5.18;;;16.70;99.90;;;16.67;100.00;97132.81;5039493;28;20716;-36
2023/06/11 04:38:51;;;;;;;5.78;5.20;;;16.70;99.90;;;16.74;100.00;97139.44;5042081;28;20044;-36
2023/06/11 04:41:17;;;;;;;5.68;5.07;;;16.90;99.90;;;16.76;100.00;97127.75;5042136;28;20040;-36
2023/06/11 04:43:45;;;;;;;5.25;4.75;;;16.90;99.90;;;16.91;100.00;97141.03;5041846;28;20037;-36
2023/06/11 04:46:11;;;;;;;5.95;5.30;;;17.00;99.90;;;16.99;100.00;97141.34;5046944;28;20035;-36
2023/06/11 04:48:37;;;;;;;5.78;5.18;;;17.10;99.90;;;17.06;100.00;97137.31;5041586;28;20025;-36
2023/06/11 04:51:04;;;;;;;5.57;5.05;;;17.20;99.90;;;17.12;100.00;97136.94;5040371;28;20024;-36
2023/06/11 04:53:31;;;;;;;5.72;4.70;;;17.30;99.90;;;17.20;100.00;97139.06;5040462;28;20354;-36
2023/06/11 04:55:58;;;;;;;5.40;4.90;;;17.30;99.90;;;17.27;100.00;97134.19;5046618;28;20035;-36
2023/06/11 04:58:25;;;;;;;5.35;4.70;;;17.30;99.90;;;17.32;100.00;97137.38;5046293;28;20035;-36
2023/06/11 05:00:56;;;;;;;6.13;5.30;;;17.40;99.90;;;17.38;100.00;97144.09;5050888;28;20033;-36
2023/06/11 05:03:24;;;;;;;5.88;5.35;;;17.50;99.90;;;17.44;100.00;97144.50;5045403;28;20037;-36
2023/06/11 05:05:51;;;;;;;6.28;5.63;;;17.50;99.90;;;17.54;100.00;97144.75;5041593;28;20029;-36
2023/06/11 05:08:24;;;;;;;5.60;5.00;;;17.60;99.90;;;17.61;100.00;97143.38;5043349;28;20024;-36
2023/06/11 05:10:52;;;;;;;6.28;5.15;;;17.70;99.90;;;17.69;100.00;97149.03;5044865;28;20505;-36
2023/06/11 05:13:24;;;;;;;8.02;5.40;;;17.80;99.90;;;17.77;100.00;97150.31;5042701;28;20095;-36
2023/06/11 05:15:51;;;;;;;6.22;5.32;;;17.90;99.90;;;17.87;100.00;97148.72;5044361;28;20474;-36
2023/06/11 05:18:17;;;;;;;6.38;5.22;;;18.00;99.90;;;17.99;100.00;97155.84;5039647;28;20040;-36
2023/06/11 05:20:43;;;;;;;6.50;5.35;;;18.10;99.90;;;18.04;100.00;97150.19;5043612;28;20028;-36
2023/06/11 05:23:10;;;;;;;5.80;5.20;;;18.20;99.90;;;18.11;100.00;97149.66;5040240;28;20036;-36
2023/06/11 05:25:35;;;;;;;6.70;5.57;;;18.30;99.90;;;18.32;100.00;97157.06;5042649;28;20033;-36
2023/06/11 05:28:06;;;;;;;6.57;5.38;;;18.30;99.90;;;18.73;100.00;97160.34;5042016;28;20477;-36
2023/06/11 05:30:36;;;;;;;7.03;5.55;;;18.50;99.90;;;19.03;100.00;97151.91;5041425;28;20024;-37
2023/06/11 05:33:02;;;;;;;6.05;5.45;;;18.70;99.90;;;19.33;100.00;97159.44;5040067;28;20121;-37
2023/06/11 05:35:29;;;;;;;6.45;5.35;;;18.90;99.90;;;19.40;100.00;97146.44;5039922;28;20457;-36
2023/06/11 05:37:57;;;;;;;8.10;5.45;;;19.10;99.90;;;19.43;100.00;97160.44;5045328;28;20497;-36
2023/06/11 05:40:23;;;;;;;7.03;4.97;;;19.20;99.90;;;19.30;100.00;97150.78;5043805;28;20555;-36
2023/06/11 05:42:49;;;;;;;6.00;5.30;;;19.30;99.90;;;19.26;100.00;97159.03;5043752;28;20029;-36
2023/06/11 05:45:15;;;;;;;5.70;5.00;;;19.30;99.90;;;19.31;100.00;97166.72;5044812;28;20037;-36
2023/06/11 05:47:41;;;;;;;7.55;5.45;;;19.30;99.90;;;19.33;100.00;97172.81;5046617;28;20083;-37
2023/06/11 05:50:07;;;;;;;7.97;5.28;;;19.40;99.90;;;19.38;100.00;97167.09;5037516;28;20068;-37
2023/06/11 05:52:33;;;;;;;6.65;5.03;;;19.40;99.90;;;19.48;100.00;97169.94;5035527;28;20021;-37
2023/06/11 05:54:59;;;;;;;6.47;5.15;;;19.50;99.90;;;19.58;100.00;97174.44;5036858;28;20071;-37
2023/06/11 05:57:25;;;;;;;6.90;5.22;;;19.60;99.90;;;19.70;100.00;97174.47;5037267;28;20722;-37
2023/06/11 05:59:51;;;;;;;6.43;5.07;;;19.70;99.90;;;19.78;100.00;97185.47;5040587;28;20037;-36
2023/06/11 06:02:18;;;;;;;7.25;5.22;;;19.90;99.90;;;19.89;100.00;97177.44;5040583;28;20064;-36
2023/06/11 06:04:51;;;;;;;6.55;5.53;;;19.90;99.90;;;19.99;100.00;97175.75;5041458;28;20036;-36
2023/06/11 06:07:17;;;;;;;6.65;5.30;;;20.00;99.90;;;20.08;100.00;97187.56;5036788;28;20058;-36
2023/06/11 06:09:43;;;;;;;5.53;5.00;;;20.10;99.90;;;20.17;100.00;97181.47;5039131;28;20028;-37
2023/06/11 06:12:09;;;;;;;5.97;5.25;;;20.20;99.90;;;20.36;100.00;97190.72;5041550;28;20029;-37
2023/06/11 06:14:35;;;;;;;5.93;4.93;;;20.30;99.90;;;20.49;98.40;97186.06;5042694;28;20402;-38
2023/06/11 06:17:00;;;;;;;5.55;4.88;;;20.50;99.90;;;20.61;97.52;97189.63;5045419;28;20063;-39
2023/06/11 06:19:26;;;;;;;5.35;4.85;;;20.60;99.90;;;20.73;96.79;97187.78;5042396;28;20033;-36
2023/06/11 06:21:52;;;;;;;5.82;5.20;;;20.70;99.90;;;20.79;94.22;97185.44;5037529;28;20102;-36
2023/06/11 06:24:18;;;;;;;6.30;5.30;;;20.70;99.90;;;20.91;94.73;97194.31;5036785;28;20041;-37
2023/06/11 06:26:43;;;;;;;6.68;4.85;;;20.90;99.90;;;21.06;92.23;97200.22;5040697;28;20070;-37
2023/06/11 06:29:13;;;;;;;7.15;5.18;;;21.00;99.90;;;21.20;91.89;97195.56;5038627;28;20056;-37
2023/06/11 06:31:42;;;;;;;5.63;4.90;;;21.10;99.90;;;21.31;89.02;97203.53;5040430;28;20554;-38
2023/06/11 06:34:08;;;;;;;5.75;5.22;;;21.20;99.90;;;21.46;90.31;97201.44;5038210;28;20068;-37
2023/06/11 06:36:35;;;;;;;5.70;5.07;;;21.40;99.90;;;21.57;85.42;97200.53;5036204;28;20375;-37
2023/06/11 06:39:01;;;;;;;6.05;5.15;;;21.50;99.90;;;21.59;84.62;97198.56;5035624;28;20033;-38
2023/06/11 06:41:27;;;;;;;7.10;5.95;;;21.50;99.90;;;21.66;82.71;97205.97;5037383;28;20397;-38
2023/06/11 06:43:53;;;;;;;4.90;4.20;;;21.60;99.90;;;21.74;84.23;97198.09;5035406;28;20387;-37
2023/06/11 06:46:19;;;;;;;5.47;4.97;;;21.60;99.90;;;21.88;83.97;97207.66;5035176;28;20111;-37
2023/06/11 06:48:45;;;;;;;6.18;4.90;;;21.80;99.90;;;21.96;80.05;97204.31;5024372;28;20029;-36
2023/06/11 06:51:11;;;;;;;6.70;4.60;;;21.90;99.90;;;22.09;80.81;97201.41;5036032;28;20032;-37
2023/06/11 06:53:36;;;;;;;5.88;4.63;;;22.00;99.90;;;22.19;79.73;97199.63;5025076;28;20043;-37
2023/06/11 06:56:05;;;;;;;7.53;4.80;;;22.10;99.90;;;22.23;77.43;97201.03;5031365;28;20557;-37
2023/06/11 06:58:32;;;;;;;5.28;4.78;;;22.20;99.90;;;22.36;77.33;97206.25;5034465;28;20560;-37
2023/06/11 07:00:58;;;;;;;6.18;5.32;;;22.30;99.90;;;22.40;79.11;97206.84;5034430;28;20094;-38
2023/06/11 07:03:24;;;;;;;6.47;4.90;;;22.30;99.90;;;22.46;76.20;97203.59;5032523;28;20032;-38
2023/06/11 07:05:50;;;;;;;7.25;5.35;;;22.40;99.90;;;22.52;73.48;97205.72;5035162;28;20254;-37
2023/06/11 07:08:16;;;;;;;7.03;5.78;;;22.40;99.90;;;22.54;73.57;97211.84;5037080;28;20160;-36
2023/06/11 07:10:49;;;;;;;5.68;5.07;;;22.50;99.90;;;22.49;72.06;97203.31;5044064;28;20082;-37
2023/06/11 07:13:16;;;;;;;5.93;4.80;;;22.50;99.90;;;22.60;73.80;97207.75;5045917;28;20452;-37
2023/06/11 07:15:41;;;;;;;5.70;4.82;;;22.50;99.90;;;22.66;75.56;97199.97;5042445;28;20056;-36
2023/06/11 07:18:08;;;;;;;5.22;4.47;;;22.60;99.90;;;22.76;70.87;97197.31;5043531;28;20064;-36
2023/06/11 07:20:34;;;;;;;5.28;4.70;;;22.70;99.90;;;22.82;69.06;97203.97;5044411;28;20040;-37
2023/06/11 07:23:00;;;;;;;5.43;4.82;;;22.70;99.90;;;22.84;71.38;97196.63;5042974;28;21834;-37
2023/06/11 07:25:30;;;;;;;5.30;4.80;;;22.80;99.90;;;22.95;67.40;97201.91;5042298;28;20032;-37
2023/06/11 07:28:00;;;;;;;7.00;4.90;;;22.90;99.90;;;23.03;66.57;97201.19;5041591;28;20028;-37
2023/06/11 07:30:26;;;;;;;5.68;4.95;;;22.90;99.90;;;23.13;64.78;97209.28;5039645;28;20040;-37
2023/06/11 07:32:53;;;;;;;9.15;4.93;;;23.00;99.90;;;23.20;64.86;97205.91;5049522;28;20500;-38
2023/06/11 07:35:22;;;;;;;6.72;5.15;;;23.10;99.90;;;23.30;67.08;97205.91;5043635;28;20511;-37
2023/06/11 07:37:48;;;;;;;5.22;4.38;;;23.20;99.90;;;23.34;63.27;97215.41;5042861;28;20029;-37
2023/06/11 07:40:15;;;;;;;8.07;5.18;;;23.30;99.90;;;23.34;63.42;97201.94;5039141;28;20052;-37
2023/06/11 07:42:45;;;;;;;5.93;4.80;;;23.30;99.90;;;23.34;64.16;97206.47;5045928;28;20381;-36
2023/06/11 07:45:14;;;;;;;6.45;4.43;;;23.30;99.90;;;23.50;62.73;97212.13;5040585;28;20189;-37
2023/06/11 07:47:41;;;;;;;5.97;5.15;;;23.40;99.90;;;23.57;61.90;97212.44;5043658;28;20431;-37
2023/06/11 07:50:08;;;;;;;6.00;5.03;;;23.50;99.90;;;23.59;59.76;97218.50;5038108;28;20428;-37
2023/06/11 07:52:34;;;;;;;4.97;4.53;;;23.50;99.90;;;23.64;60.04;97213.56;5042988;28;20021;-37
2023/06/11 07:55:00;;;;;;;6.80;4.95;;;23.60;99.90;;;23.73;63.09;97218.06;5042005;28;20365;-38
2023/06/11 07:57:25;;;;;;;6.47;4.80;;;23.60;99.90;;;23.82;60.88;97219.94;5031739;28;20036;-37
2023/06/11 07:59:52;;;;;;;5.03;4.53;;;23.70;99.90;;;23.89;58.85;97220.22;5045054;28;20044;-37
2023/06/11 08:02:18;;;;;;;5.82;4.68;;;23.80;99.90;;;23.95;55.67;97216.09;5044554;28;20067;-38
2023/06/11 08:04:43;;;;;;;4.82;4.32;;;23.90;99.80;;;24.08;55.90;97219.31;5039497;28;20033;-38
2023/06/11 08:07:10;;;;;;;7.00;5.07;;;24.00;99.60;;;24.10;56.90;97216.47;5034804;28;20275;-37
2023/06/11 08:09:36;;;;;;;6.85;4.93;;;24.10;99.50;;;23.97;54.56;97214.09;5036548;28;20116;-37
2023/06/11 08:12:04;;;;;;;5.50;4.30;;;23.90;98.50;;;24.01;55.11;97215.50;5037495;28;20036;-38
2023/06/11 08:14:30;;;;;;;5.05;4.47;;;23.90;99.10;;;23.92;53.91;97216.38;5030129;28;20157;-36
2023/06/11 08:16:55;;;;;;;5.03;4.40;;;23.90;97.90;;;23.88;53.06;97213.13;5029403;28;20075;-37
2023/06/11 08:19:22;;;;;;;8.45;4.70;;;23.90;97.80;;;23.99;52.38;97206.72;5028198;28;20495;-37
2023/06/11 08:21:48;;;;;;;5.03;4.45;;;23.90;97.30;;;24.01;52.49;97205.59;5021425;28;22675;-38
2023/06/11 08:24:14;;;;;;;5.07;4.40;;;23.90;97.50;;;24.09;53.01;97209.41;5035848;28;20036;-37
2023/06/11 08:26:40;;;;;;;5.20;4.65;;;24.00;97.60;;;24.12;52.75;97206.38;5026362;28;20037;-38
2023/06/11 08:29:05;;;;;;;5.93;4.45;;;24.00;97.40;;;24.17;51.70;97204.09;5028895;28;20050;-37
2023/06/11 08:31:32;;;;;;;5.68;5.07;;;24.10;96.80;;;24.30;52.22;97201.94;5030878;28;20047;-37
2023/06/11 08:33:58;;;;;;;6.93;4.53;;;24.20;97.20;;;24.34;51.11;97211.44;5035045;28;20033;-38
2023/06/11 08:36:23;;;;;;;5.10;4.30;;;24.30;96.20;;;24.45;51.44;97209.56;5029851;28;20024;-38
2023/06/11 08:38:49;;;;;;;5.88;4.30;;;24.30;96.10;;;24.39;49.06;97217.22;5036337;28;20036;-37
2023/06/11 08:41:15;;;;;;;6.45;4.32;;;24.30;94.90;;;24.41;49.81;97200.91;5028056;28;20040;-38
2023/06/11 08:43:41;;;;;;;4.53;3.92;;;24.40;95.70;;;24.60;49.98;97207.25;5036514;28;20491;-40
2023/06/11 08:46:16;;;;;;;4.50;4.03;;;24.50;96.20;;;24.68;48.30;97201.97;5041526;28;20021;-38
2023/06/11 08:48:44;;;;;;;5.07;4.50;;;24.60;94.50;;;24.80;48.01;97203.47;5043923;28;20064;-38
2023/06/11 08:51:12;;;;;;;6.90;4.18;;;24.80;93.80;;;24.93;47.34;97186.91;5041805;28;20032;-38
2023/06/11 08:53:39;;;;;;;4.43;4.03;;;24.90;93.80;;;25.09;46.58;97188.94;5036546;28;20056;-38
2023/06/11 08:56:06;;;;;;;6.93;4.03;;;25.00;93.60;;;25.23;46.55;97201.91;5043664;28;20029;-38
2023/06/11 08:58:34;;;;;;;5.45;4.72;;;25.20;93.30;;;25.30;46.60;97203.00;5033620;28;20209;-38
2023/06/11 09:01:10;;;;;;;5.20;4.28;;;25.20;93.00;;;25.46;48.02;97198.75;5032410;28;20526;-38
2023/06/11 09:03:36;;;;;;;5.85;4.72;;;25.40;93.90;;;25.61;46.20;97194.50;5036674;28;20174;-38
2023/06/11 09:06:01;;;;;;;9.32;4.85;;;25.60;92.90;;;25.82;51.35;97199.53;5036957;28;20119;-38
2023/06/11 09:08:28;;;;;;;7.10;4.55;;;25.70;95.10;;;25.94;50.06;97202.88;5042720;28;20032;-40
2023/06/11 09:10:54;;;;;;;5.13;4.18;;;25.90;94.80;;;25.94;52.50;97194.78;5041078;28;20097;-38
2023/06/11 09:13:27;;;;;;;4.63;4.22;;;25.90;95.50;;;25.81;51.16;97195.16;5034321;28;20029;-38
2023/06/11 09:15:55;;;;;;;5.25;4.53;;;25.70;95.40;;;25.63;49.12;97202.44;5034009;28;20452;-38
2023/06/11 09:18:23;;;;;;;4.95;4.55;;;25.50;94.50;;;25.25;48.96;97193.66;5029956;28;20128;-38
2023/06/11 09:20:57;;;;;;;5.47;4.85;;;25.20;93.70;;;25.08;48.12;97198.00;5038394;28;20025;-38
2023/06/11 09:26:02;;;;;;;5.22;4.63;;;25.00;93.50;;;24.95;49.92;97188.44;5068520;22;20087;-38
2023/06/11 09:28:33;;;;;;;5.78;4.72;;;24.90;94.10;;;24.94;48.85;97194.84;5068126;28;20489;-39
2023/06/11 09:31:00;;;;;;;5.40;4.88;;;24.90;93.30;;;24.80;48.04;97192.69;5066922;28;20063;-39
2023/06/11 09:33:28;;;;;;;6.13;4.63;;;24.70;92.60;;;24.80;47.12;97191.81;5072274;28;20151;-39
2023/06/11 09:35:54;;;;;;;5.13;4.63;;;24.70;92.50;;;24.62;47.00;97189.94;5046506;28;20185;-38
2023/06/11 09:38:21;;;;;;;6.45;4.43;;;24.50;92.20;;;24.51;47.36;97187.38;5071720;23;20543;-37
2023/06/11 09:40:54;;;;;;;4.88;4.32;;;24.40;92.50;;;24.49;46.79;97192.91;5048432;28;20162;-37
2023/06/11 09:43:22;;;;;;;5.53;4.38;;;24.40;92.00;;;24.51;48.62;97185.53;5046601;28;20183;-39
2023/06/11 09:45:55;;;;;;;4.55;4.15;;;24.40;92.90;;;24.62;45.53;97189.94;5041901;28;20078;-39
2023/06/11 09:48:24;;;;;;;4.78;4.05;;;24.50;90.60;;;24.71;44.04;97188.16;5031258;28;20032;-39
2023/06/11 09:50:52;;;;;;;4.45;4.05;;;24.60;90.10;;;24.82;42.47;97198.75;5038254;28;20306;-40
2023/06/11 09:53:20;;;;;;;6.80;4.15;;;24.70;87.80;;;24.93;43.45;97190.44;5043179;28;20056;-40
2023/06/11 09:55:50;;;;;;;8.82;4.75;;;24.80;87.60;;;24.99;40.10;97191.69;5046463;28;20032;-39
2023/06/11 09:58:27;;;;;;;6.95;4.53;;;24.90;83.20;;;25.00;41.17;97177.22;5041520;28;20041;-40
2023/06/11 10:01:00;;;;;;;6.65;4.60;;;25.00;84.70;;;25.21;40.18;97192.25;5046399;28;20117;-40
2023/06/11 10:03:26;;;;;;;5.68;4.70;;;25.20;82.50;;;25.33;41.17;97185.66;5041097;28;20583;-43
2023/06/11 10:05:53;;;;;;;4.40;3.60;;;25.20;84.00;;;25.42;39.20;97183.88;5045647;28;20035;-40
2023/06/11 10:08:29;;;;;;;5.07;3.97;;;25.30;81.70;;;25.49;40.17;97184.94;5045762;28;20667;-40
2023/06/11 10:11:00;;;;;;;5.38;4.05;;;25.40;81.40;;;25.56;39.57;97191.41;5043295;28;20028;-40
2023/06/11 10:13:34;;;;;;;7.82;4.55;;;25.50;80.50;;;25.67;38.91;97193.03;5042502;28;20090;-40
2023/06/11 10:16:07;;;;;;;5.25;4.20;;;25.60;79.60;;;25.73;38.08;97192.38;5041797;28;20048;-41
2023/06/11 10:18:33;;;;;;;8.07;4.20;;;25.70;78.00;;;25.81;38.50;97191.63;5042510;28;20021;-41